createdAt,value
2019-02-12T00:01:21.499Z,2.37
2019-02-12T00:06:18.238Z,2.80
2019-02-12T00:11:13.941Z,2.40
2019-02-12T00:16:09.659Z,2.90
2019-02-12T00:21:09.271Z,2.70
2019-02-12T00:26:03.245Z,2.77
2019-02-12T00:30:59.018Z,2.20
2019-02-12T00:35:54.718Z,2.40
2019-02-12T00:40:50.439Z,2.70
2019-02-12T00:45:46.250Z,2.60
2019-02-12T00:50:41.965Z,2.70
2019-02-12T00:55:37.671Z,2.43
2019-02-12T01:00:33.389Z,2.17
2019-02-12T01:05:29.148Z,2.70
2019-02-12T01:10:24.860Z,3.03
2019-02-12T01:15:20.689Z,2.10
2019-02-12T01:20:16.409Z,2.40
2019-02-12T01:25:12.101Z,1.93
2019-02-12T01:30:09.531Z,2.63
2019-02-12T01:35:05.243Z,2.10
2019-02-12T01:40:00.959Z,1.80
2019-02-12T01:44:56.654Z,1.40
2019-02-12T01:49:52.382Z,1.90
2019-02-12T01:54:48.055Z,1.63
2019-02-12T01:59:43.753Z,1.80
2019-02-12T02:04:39.467Z,1.87
2019-02-12T02:09:35.189Z,2.70
2019-02-12T02:14:31.096Z,1.93
2019-02-12T02:19:26.815Z,2.00
2019-02-12T02:24:22.489Z,2.00
2019-02-12T02:29:18.223Z,2.03
2019-02-12T02:34:13.984Z,2.30
2019-02-12T02:39:09.737Z,2.10
2019-02-12T02:44:05.450Z,1.80
2019-02-12T02:49:01.278Z,2.47
2019-02-12T02:53:56.993Z,2.27
2019-02-12T02:58:52.694Z,3.10
2019-02-12T03:03:48.403Z,2.70
2019-02-12T03:08:44.130Z,3.30
2019-02-12T03:13:39.826Z,3.23
2019-02-12T03:18:35.535Z,3.87
2019-02-12T03:23:31.229Z,5.87
2019-02-12T03:28:26.969Z,5.63
2019-02-12T03:33:22.666Z,5.40
2019-02-12T03:38:18.380Z,5.27
2019-02-12T03:43:14.093Z,4.30
2019-02-12T03:48:09.807Z,3.80
2019-02-12T03:53:05.534Z,4.13
2019-02-12T03:58:01.248Z,4.03
2019-02-12T04:03:03.941Z,3.30
2019-02-12T04:07:59.915Z,3.90
2019-02-12T04:12:55.615Z,2.77
2019-02-12T04:17:51.339Z,3.10
2019-02-12T04:22:47.063Z,2.80
2019-02-12T04:27:42.819Z,2.90
2019-02-12T04:32:38.831Z,3.00
2019-02-12T04:37:34.522Z,2.23
2019-02-12T04:42:30.252Z,2.90
2019-02-12T04:47:25.982Z,2.70
2019-02-12T04:52:21.652Z,2.63
2019-02-12T04:57:17.352Z,2.53
2019-02-12T05:02:13.367Z,2.83
2019-02-12T05:07:09.967Z,2.60
2019-02-12T05:12:06.800Z,3.53
2019-02-12T05:17:03.646Z,3.10
2019-02-12T05:22:19.607Z,2.70
2019-02-12T05:27:15.693Z,2.57
2019-02-12T05:32:11.390Z,3.00
2019-02-12T05:37:07.212Z,3.37
2019-02-12T05:42:02.995Z,2.70
2019-02-12T05:46:58.907Z,3.00
2019-02-12T05:51:55.518Z,2.33
2019-02-12T05:56:52.101Z,3.17
2019-02-12T06:01:47.923Z,2.50
2019-02-12T06:06:45.719Z,2.23
2019-02-12T06:12:05.103Z,3.03
2019-02-12T06:17:00.843Z,3.10
2019-02-12T06:21:56.564Z,2.43
2019-02-12T06:26:52.266Z,2.60
2019-02-12T06:31:48.098Z,2.03
2019-02-12T06:36:43.804Z,2.30
2019-02-12T06:41:39.573Z,2.60
2019-02-12T06:46:35.313Z,1.47
2019-02-12T06:51:30.991Z,2.13
2019-02-12T06:56:26.681Z,2.57
2019-02-12T07:01:22.393Z,2.50
2019-02-12T07:06:20.355Z,2.53
2019-02-12T07:11:17.968Z,2.30
2019-02-12T07:16:15.580Z,2.40
2019-02-12T07:21:16.355Z,2.43
2019-02-12T07:26:14.057Z,2.67
2019-02-12T07:31:11.668Z,2.60
2019-02-12T07:36:25.721Z,2.43
2019-02-12T07:41:38.539Z,2.50
2019-02-12T07:46:38.915Z,2.43
2019-02-12T07:51:39.333Z,2.23
2019-02-12T07:56:53.628Z,2.60
2019-02-12T08:01:57.005Z,2.30
2019-02-12T08:07:11.209Z,3.03
2019-02-12T08:12:14.706Z,2.57
2019-02-12T08:17:12.310Z,2.67
2019-02-12T08:22:10.181Z,2.60
2019-02-12T08:27:10.776Z,2.60
2019-02-12T08:32:11.459Z,3.00
2019-02-12T08:37:12.069Z,3.10
2019-02-12T08:42:12.804Z,2.80
2019-02-12T08:47:13.542Z,2.90
2019-02-12T08:52:23.093Z,2.93
2019-02-12T08:57:20.707Z,2.77
2019-02-12T09:02:18.305Z,2.90
2019-02-12T09:07:28.056Z,2.23
2019-02-12T09:12:37.510Z,2.10
2019-02-12T09:17:53.425Z,2.60
2019-02-12T09:22:51.287Z,2.20
2019-02-12T09:27:51.647Z,2.50
2019-02-12T09:33:01.451Z,2.90
2019-02-12T09:37:59.200Z,2.50
2019-02-12T09:43:13.283Z,2.87
2019-02-12T09:48:10.861Z,2.10
2019-02-12T09:53:08.467Z,2.70
2019-02-12T09:58:06.110Z,3.47
2019-02-12T10:03:06.816Z,2.00
2019-02-12T10:08:04.439Z,2.30
2019-02-12T10:13:13.953Z,2.47
2019-02-12T10:18:11.561Z,2.70
2019-02-12T10:23:12.039Z,2.93
2019-02-12T10:28:09.671Z,2.73
2019-02-12T10:33:05.415Z,2.90
2019-02-12T10:38:01.124Z,2.80
2019-02-12T10:42:56.912Z,2.60
2019-02-12T10:47:52.634Z,2.80
2019-02-12T10:52:48.344Z,3.23
2019-02-12T10:57:44.049Z,3.30
2019-02-12T11:02:39.767Z,2.77
2019-02-12T11:07:35.553Z,2.83
2019-02-12T11:12:31.371Z,2.77
2019-02-12T11:17:27.080Z,3.73
2019-02-12T11:22:22.837Z,2.70
2019-02-12T11:27:18.530Z,3.27
2019-02-12T11:32:14.257Z,2.87
2019-02-12T11:37:10.010Z,4.07
2019-02-12T11:42:05.791Z,3.20
2019-02-12T11:47:01.503Z,3.23
2019-02-12T11:51:57.191Z,2.57
2019-02-12T11:56:53.165Z,3.00
2019-02-12T12:01:48.873Z,4.47
2019-02-12T12:06:44.580Z,2.50
2019-02-12T12:11:40.295Z,3.17
2019-02-12T12:16:36.003Z,3.17
2019-02-12T12:21:31.936Z,2.50
2019-02-12T12:26:27.698Z,2.93
2019-02-12T12:31:23.395Z,3.03
2019-02-12T12:36:19.109Z,2.60
2019-02-12T12:41:15.041Z,2.27
2019-02-12T12:46:11.051Z,2.80
2019-02-12T12:51:06.839Z,3.10
2019-02-12T12:56:02.635Z,2.33
2019-02-12T13:00:58.431Z,3.03
2019-02-12T13:05:54.143Z,3.10
2019-02-12T13:10:50.023Z,2.70
2019-02-12T13:15:46.732Z,2.97
2019-02-12T13:20:42.441Z,2.83
2019-02-12T13:25:38.147Z,3.10
2019-02-12T13:30:33.956Z,2.60
2019-02-12T13:35:29.652Z,2.60
2019-02-12T13:40:25.633Z,3.40
2019-02-12T13:45:21.339Z,2.70
2019-02-12T13:50:17.057Z,2.50
2019-02-12T13:55:17.274Z,2.70
2019-02-12T14:00:12.116Z,2.83
2019-02-12T14:05:12.153Z,3.33
2019-02-12T14:10:08.147Z,2.90
2019-02-12T14:15:06.006Z,3.30
2019-02-12T14:20:01.944Z,3.20
2019-02-12T14:24:57.665Z,2.37
2019-02-12T14:29:53.326Z,2.90
2019-02-12T14:34:49.315Z,2.97
2019-02-12T14:39:45.035Z,2.57
2019-02-12T14:44:40.967Z,3.00
2019-02-12T14:49:36.691Z,2.40
2019-02-12T14:54:32.537Z,2.80
2019-02-12T14:59:28.562Z,3.00
2019-02-12T15:04:24.257Z,3.40
2019-02-12T15:09:19.967Z,3.33
2019-02-12T15:14:15.688Z,3.13
2019-02-12T15:19:11.505Z,3.40
2019-02-12T15:24:07.862Z,3.17
2019-02-12T15:29:03.723Z,2.87
2019-02-12T15:33:59.447Z,2.90
2019-02-12T15:38:55.416Z,3.03
2019-02-12T15:43:51.127Z,3.33
2019-02-12T15:48:46.853Z,2.90
2019-02-12T15:53:42.565Z,3.10
2019-02-12T15:58:38.371Z,3.00
2019-02-12T16:03:34.494Z,3.07
2019-02-12T16:08:32.099Z,3.70
2019-02-12T16:13:28.214Z,3.33
2019-02-12T16:18:24.917Z,3.30
2019-02-12T16:23:20.741Z,3.40
2019-02-12T16:28:16.455Z,3.77
2019-02-12T16:33:12.149Z,3.60
2019-02-12T16:38:07.877Z,3.87
2019-02-12T16:43:03.607Z,4.57
2019-02-12T16:48:00.198Z,3.77
2019-02-12T16:52:56.308Z,3.77
2019-02-12T16:57:52.015Z,4.40
2019-02-12T17:02:47.744Z,4.03
2019-02-12T17:07:43.913Z,4.77
2019-02-12T17:12:39.835Z,4.30
2019-02-12T17:17:35.546Z,4.33
2019-02-12T17:22:31.252Z,4.47
2019-02-12T17:27:27.081Z,4.30
2019-02-12T17:32:22.829Z,4.13
2019-02-12T17:37:18.533Z,4.77
2019-02-12T17:42:14.513Z,4.30
2019-02-12T17:47:10.195Z,4.33
2019-02-12T17:52:05.926Z,4.97
2019-02-12T17:57:01.603Z,5.13
2019-02-12T18:01:57.312Z,5.33
2019-02-12T18:06:53.038Z,5.60
2019-02-12T18:11:48.756Z,5.53
2019-02-12T18:16:44.662Z,5.63
2019-02-12T18:21:40.623Z,5.53
2019-02-12T18:26:36.363Z,5.53
2019-02-12T18:31:32.989Z,5.37
2019-02-12T18:36:29.119Z,6.13
2019-02-12T18:41:25.780Z,6.40
2019-02-12T18:46:22.518Z,6.40
2019-02-12T18:51:18.631Z,6.13
2019-02-12T18:56:14.592Z,5.80
2019-02-12T19:01:10.391Z,4.93
2019-02-12T19:06:06.195Z,7.10
2019-02-12T19:11:01.902Z,5.83
2019-02-12T19:15:57.832Z,5.33
2019-02-12T19:20:53.796Z,5.10
2019-02-12T19:25:50.438Z,6.07
2019-02-12T19:30:47.189Z,7.50
2019-02-12T19:35:44.658Z,7.30
2019-02-12T19:40:41.388Z,6.67
2019-02-12T19:45:37.083Z,6.33
2019-02-12T19:50:33.599Z,7.50
2019-02-12T19:55:29.372Z,7.23
2019-02-12T20:00:25.506Z,7.00
2019-02-12T20:05:22.767Z,6.60
2019-02-12T20:10:18.884Z,6.40
2019-02-12T20:15:21.117Z,5.50
2019-02-12T20:20:18.080Z,5.23
2019-02-12T20:25:15.810Z,5.63
2019-02-12T20:30:15.219Z,4.87
2019-02-12T20:35:18.084Z,4.07
2019-02-12T20:40:16.274Z,3.87
2019-02-12T20:45:16.158Z,4.00
2019-02-12T20:50:18.980Z,4.50
2019-02-12T20:55:14.942Z,4.00
2019-02-12T21:00:17.677Z,3.93
2019-02-12T21:05:14.522Z,4.07
2019-02-12T21:10:15.144Z,3.60
2019-02-12T21:15:12.930Z,4.43
2019-02-12T21:20:10.600Z,4.87
2019-02-12T21:25:10.273Z,3.80
2019-02-12T21:30:08.302Z,4.30
2019-02-12T21:35:05.312Z,4.87
2019-02-12T21:40:01.047Z,4.27
2019-02-12T21:44:57.065Z,5.33
2019-02-12T21:49:52.872Z,5.40
2019-02-12T21:54:49.538Z,4.23
2019-02-12T21:59:46.514Z,5.43
2019-02-12T22:04:42.970Z,7.50
2019-02-12T22:09:39.699Z,5.03
2019-02-12T22:14:35.499Z,4.53
2019-02-12T22:19:31.206Z,4.83
2019-02-12T22:24:27.678Z,4.33
2019-02-12T22:29:23.597Z,4.03
2019-02-12T22:34:19.422Z,4.60
2019-02-12T22:39:15.325Z,4.83
2019-02-12T22:44:11.134Z,5.00
2019-02-12T22:49:07.767Z,4.07
2019-02-12T22:54:03.530Z,4.20
2019-02-12T22:59:00.114Z,5.70
2019-02-12T23:03:56.542Z,6.83
2019-02-12T23:08:53.057Z,4.03
2019-02-12T23:13:49.706Z,7.53
2019-02-12T23:18:46.083Z,5.33
2019-02-12T23:23:41.797Z,4.40
2019-02-12T23:28:38.493Z,4.77
2019-02-12T23:33:35.266Z,4.57
2019-02-12T23:38:31.471Z,4.47
2019-02-12T23:43:27.267Z,7.43
2019-02-12T23:48:23.168Z,9.67
2019-02-12T23:53:19.008Z,3.70
2019-02-12T23:58:15.628Z,3.63
